sensor_id;sensor_type;location;lat;lon;timestamp;pressure;altitude;pressure_sealevel;temperature;humidity
26436;BME280;15351;52.408;16.826;2023-07-29T00:00:17;100111.49;;;21.33;78.92
26436;BME280;15351;52.408;16.826;2023-07-29T00:03:06;100110.13;;;21.30;78.51
26436;BME280;15351;52.408;16.826;2023-07-29T00:05:34;100109.70;;;21.25;78.35
26436;BME280;15351;52.408;16.826;2023-07-29T00:08:00;100111.03;;;21.22;78.34
26436;BME280;15351;52.408;16.826;2023-07-29T00:10:26;100111.10;;;21.17;78.26
26436;BME280;15351;52.408;16.826;2023-07-29T00:12:53;100115.79;;;21.15;78.31
26436;BME280;15351;52.408;16.826;2023-07-29T00:15:19;100112.66;;;21.12;78.13
26436;BME280;15351;52.408;16.826;2023-07-29T00:17:46;100114.52;;;21.10;78.05
26436;BME280;15351;52.408;16.826;2023-07-29T00:20:14;100116.08;;;21.07;77.88
26436;BME280;15351;52.408;16.826;2023-07-29T00:22:43;100115.59;;;21.03;77.79
26436;BME280;15351;52.408;16.826;2023-07-29T00:25:09;100118.18;;;21.02;77.66
26436;BME280;15351;52.408;16.826;2023-07-29T00:27:36;100118.84;;;20.99;77.59
26436;BME280;15351;52.408;16.826;2023-07-29T00:30:03;100120.36;;;20.95;77.60
26436;BME280;15351;52.408;16.826;2023-07-29T00:32:30;100112.58;;;20.93;77.80
26436;BME280;15351;52.408;16.826;2023-07-29T00:34:57;100108.05;;;20.91;77.72
26436;BME280;15351;52.408;16.826;2023-07-29T00:37:28;100107.02;;;20.88;77.63
26436;BME280;15351;52.408;16.826;2023-07-29T00:39:54;100108.78;;;20.85;77.64
26436;BME280;15351;52.408;16.826;2023-07-29T00:42:23;100105.83;;;20.81;77.52
26436;BME280;15351;52.408;16.826;2023-07-29T00:44:53;100103.19;;;20.80;77.53
26436;BME280;15351;52.408;16.826;2023-07-29T00:47:21;100101.30;;;20.78;77.43
26436;BME280;15351;52.408;16.826;2023-07-29T00:49:57;100100.71;;;20.76;77.30
26436;BME280;15351;52.408;16.826;2023-07-29T00:52:24;100105.23;;;20.73;77.25
26436;BME280;15351;52.408;16.826;2023-07-29T00:54:54;100105.91;;;20.68;77.20
26436;BME280;15351;52.408;16.826;2023-07-29T00:57:20;100105.29;;;20.65;77.05
26436;BME280;15351;52.408;16.826;2023-07-29T00:59:47;100105.55;;;20.61;76.98
26436;BME280;15351;52.408;16.826;2023-07-29T01:02:14;100109.52;;;20.57;77.04
26436;BME280;15351;52.408;16.826;2023-07-29T01:04:41;100113.73;;;20.52;76.91
26436;BME280;15351;52.408;16.826;2023-07-29T01:07:28;100116.00;;;20.49;76.99
26436;BME280;15351;52.408;16.826;2023-07-29T01:10:13;100112.63;;;20.48;76.98
26436;BME280;15351;52.408;16.826;2023-07-29T01:13:02;100106.99;;;20.45;77.13
26436;BME280;15351;52.408;16.826;2023-07-29T01:16:08;100106.92;;;20.44;76.98
26436;BME280;15351;52.408;16.826;2023-07-29T01:18:39;100108.64;;;20.41;76.79
26436;BME280;15351;52.408;16.826;2023-07-29T01:21:08;100104.98;;;20.36;76.82
26436;BME280;15351;52.408;16.826;2023-07-29T01:23:35;100107.00;;;20.33;76.73
26436;BME280;15351;52.408;16.826;2023-07-29T01:26:03;100110.77;;;20.30;76.76
26436;BME280;15351;52.408;16.826;2023-07-29T01:28:32;100111.39;;;20.27;76.91
26436;BME280;15351;52.408;16.826;2023-07-29T01:31:10;100106.80;;;20.25;76.81
26436;BME280;15351;52.408;16.826;2023-07-29T01:33:56;100105.80;;;20.25;76.79
26436;BME280;15351;52.408;16.826;2023-07-29T01:36:30;100099.79;;;20.22;76.56
26436;BME280;15351;52.408;16.826;2023-07-29T01:38:59;100103.00;;;20.20;76.19
26436;BME280;15351;52.408;16.826;2023-07-29T01:41:28;100100.38;;;20.14;76.39
26436;BME280;15351;52.408;16.826;2023-07-29T01:43:56;100105.50;;;20.10;76.13
26436;BME280;15351;52.408;16.826;2023-07-29T01:46:24;100103.87;;;20.06;76.22
26436;BME280;15351;52.408;16.826;2023-07-29T01:48:52;100104.86;;;20.03;76.50
26436;BME280;15351;52.408;16.826;2023-07-29T01:51:19;100106.83;;;20.01;76.43
26436;BME280;15351;52.408;16.826;2023-07-29T01:53:47;100107.13;;;19.99;76.26
26436;BME280;15351;52.408;16.826;2023-07-29T01:56:14;100103.44;;;19.96;76.18
26436;BME280;15351;52.408;16.826;2023-07-29T01:58:49;100103.50;;;19.94;76.13
26436;BME280;15351;52.408;16.826;2023-07-29T02:01:15;100106.02;;;19.91;76.24
26436;BME280;15351;52.408;16.826;2023-07-29T02:03:42;100101.39;;;19.88;76.48
26436;BME280;15351;52.408;16.826;2023-07-29T02:06:11;100101.35;;;19.86;76.59
26436;BME280;15351;52.408;16.826;2023-07-29T02:08:38;100098.85;;;19.84;76.68
26436;BME280;15351;52.408;16.826;2023-07-29T02:11:06;100103.48;;;19.84;76.75
26436;BME280;15351;52.408;16.826;2023-07-29T02:13:33;100104.09;;;19.83;76.72
26436;BME280;15351;52.408;16.826;2023-07-29T02:15:59;100105.21;;;19.82;76.85
26436;BME280;15351;52.408;16.826;2023-07-29T02:18:26;100102.36;;;19.81;76.82
26436;BME280;15351;52.408;16.826;2023-07-29T02:20:53;100103.32;;;19.80;76.59
26436;BME280;15351;52.408;16.826;2023-07-29T02:23:20;100106.16;;;19.77;76.41
26436;BME280;15351;52.408;16.826;2023-07-29T02:25:47;100107.92;;;19.74;76.42
26436;BME280;15351;52.408;16.826;2023-07-29T02:28:13;100108.61;;;19.71;76.49
26436;BME280;15351;52.408;16.826;2023-07-29T02:30:41;100110.46;;;19.70;76.60
26436;BME280;15351;52.408;16.826;2023-07-29T02:33:10;100108.36;;;19.68;76.60
26436;BME280;15351;52.408;16.826;2023-07-29T02:35:36;100109.75;;;19.67;76.57
26436;BME280;15351;52.408;16.826;2023-07-29T02:38:03;100107.20;;;19.66;76.69
26436;BME280;15351;52.408;16.826;2023-07-29T02:40:29;100112.67;;;19.66;76.68
26436;BME280;15351;52.408;16.826;2023-07-29T02:42:56;100114.27;;;19.66;76.83
26436;BME280;15351;52.408;16.826;2023-07-29T02:45:25;100118.16;;;19.66;77.03
26436;BME280;15351;52.408;16.826;2023-07-29T02:47:53;100116.24;;;19.66;77.22
26436;BME280;15351;52.408;16.826;2023-07-29T02:50:19;100114.34;;;19.67;77.59
26436;BME280;15351;52.408;16.826;2023-07-29T02:52:49;100117.94;;;19.66;77.74
26436;BME280;15351;52.408;16.826;2023-07-29T02:55:19;100119.46;;;19.66;77.81
26436;BME280;15351;52.408;16.826;2023-07-29T02:57:46;100121.65;;;19.65;77.88
26436;BME280;15351;52.408;16.826;2023-07-29T03:00:13;100125.02;;;19.67;77.85
26436;BME280;15351;52.408;16.826;2023-07-29T03:02:41;100133.35;;;19.69;77.76
26436;BME280;15351;52.408;16.826;2023-07-29T03:05:09;100133.35;;;19.69;77.89
26436;BME280;15351;52.408;16.826;2023-07-29T03:07:38;100132.94;;;19.66;77.86
26436;BME280;15351;52.408;16.826;2023-07-29T03:10:08;100134.16;;;19.64;78.09
26436;BME280;15351;52.408;16.826;2023-07-29T03:12:34;100129.65;;;19.63;78.13
26436;BME280;15351;52.408;16.826;2023-07-29T03:15:01;100128.52;;;19.64;78.25
26436;BME280;15351;52.408;16.826;2023-07-29T03:17:27;100127.92;;;19.64;78.15
26436;BME280;15351;52.408;16.826;2023-07-29T03:19:58;100123.48;;;19.64;78.52
26436;BME280;15351;52.408;16.826;2023-07-29T03:22:27;100123.20;;;19.66;78.59
26436;BME280;15351;52.408;16.826;2023-07-29T03:24:55;100129.81;;;19.68;78.79
26436;BME280;15351;52.408;16.826;2023-07-29T03:27:23;100130.36;;;19.70;78.85
26436;BME280;15351;52.408;16.826;2023-07-29T03:29:49;100136.77;;;19.72;78.92
26436;BME280;15351;52.408;16.826;2023-07-29T03:32:16;100138.31;;;19.75;79.23
26436;BME280;15351;52.408;16.826;2023-07-29T03:34:46;100136.36;;;19.76;79.40
26436;BME280;15351;52.408;16.826;2023-07-29T03:37:12;100134.69;;;19.77;79.87
26436;BME280;15351;52.408;16.826;2023-07-29T03:39:39;100136.91;;;19.81;80.07
26436;BME280;15351;52.408;16.826;2023-07-29T03:42:07;100139.00;;;19.86;80.13
26436;BME280;15351;52.408;16.826;2023-07-29T03:44:37;100143.05;;;19.91;80.15
26436;BME280;15351;52.408;16.826;2023-07-29T03:47:11;100141.11;;;19.95;80.19
26436;BME280;15351;52.408;16.826;2023-07-29T03:49:38;100139.80;;;19.98;80.21
26436;BME280;15351;52.408;16.826;2023-07-29T03:52:05;100141.85;;;20.01;80.22
26436;BME280;15351;52.408;16.826;2023-07-29T03:54:35;100144.35;;;20.03;80.39
26436;BME280;15351;52.408;16.826;2023-07-29T03:57:02;100148.09;;;20.06;80.48
26436;BME280;15351;52.408;16.826;2023-07-29T03:59:30;100146.16;;;20.11;80.59
26436;BME280;15351;52.408;16.826;2023-07-29T04:01:59;100145.23;;;20.14;80.63
26436;BME280;15351;52.408;16.826;2023-07-29T04:04:25;100143.44;;;20.17;80.67
26436;BME280;15351;52.408;16.826;2023-07-29T04:06:52;100141.52;;;20.21;80.80
26436;BME280;15351;52.408;16.826;2023-07-29T04:09:21;100141.38;;;20.23;80.68
26436;BME280;15351;52.408;16.826;2023-07-29T04:11:56;100140.27;;;20.25;80.71
26436;BME280;15351;52.408;16.826;2023-07-29T04:14:27;100144.49;;;20.31;80.84
26436;BME280;15351;52.408;16.826;2023-07-29T04:17:01;100144.34;;;20.34;80.71
26436;BME280;15351;52.408;16.826;2023-07-29T04:19:28;100147.32;;;20.37;80.84
26436;BME280;15351;52.408;16.826;2023-07-29T04:21:57;100149.02;;;20.40;80.70
26436;BME280;15351;52.408;16.826;2023-07-29T04:24:43;100153.14;;;20.42;80.67
26436;BME280;15351;52.408;16.826;2023-07-29T04:27:09;100158.60;;;20.44;80.59
26436;BME280;15351;52.408;16.826;2023-07-29T04:29:40;100154.21;;;20.44;80.66
26436;BME280;15351;52.408;16.826;2023-07-29T04:32:07;100155.34;;;20.48;80.62
26436;BME280;15351;52.408;16.826;2023-07-29T04:34:34;100158.61;;;20.49;80.42
26436;BME280;15351;52.408;16.826;2023-07-29T04:37:01;100153.27;;;20.46;80.38
26436;BME280;15351;52.408;16.826;2023-07-29T04:39:28;100158.40;;;20.49;80.39
26436;BME280;15351;52.408;16.826;2023-07-29T04:42:13;100156.17;;;20.51;80.32
26436;BME280;15351;52.408;16.826;2023-07-29T04:44:42;100155.89;;;20.53;80.27
26436;BME280;15351;52.408;16.826;2023-07-29T04:47:10;100156.52;;;20.53;80.29
26436;BME280;15351;52.408;16.826;2023-07-29T04:49:38;100154.95;;;20.55;80.50
26436;BME280;15351;52.408;16.826;2023-07-29T04:52:09;100154.50;;;20.57;80.60
26436;BME280;15351;52.408;16.826;2023-07-29T04:54:35;100155.42;;;20.60;80.80
26436;BME280;15351;52.408;16.826;2023-07-29T04:57:06;100156.10;;;20.64;81.01
26436;BME280;15351;52.408;16.826;2023-07-29T04:59:33;100147.67;;;20.66;81.12
26436;BME280;15351;52.408;16.826;2023-07-29T05:02:02;100153.48;;;20.69;81.30
26436;BME280;15351;52.408;16.826;2023-07-29T05:04:33;100154.98;;;20.67;81.22
26436;BME280;15351;52.408;16.826;2023-07-29T05:07:00;100159.42;;;20.67;81.57
26436;BME280;15351;52.408;16.826;2023-07-29T05:09:34;100160.19;;;20.70;81.77
26436;BME280;15351;52.408;16.826;2023-07-29T05:12:01;100156.61;;;20.73;81.88
26436;BME280;15351;52.408;16.826;2023-07-29T05:14:27;100158.26;;;20.76;82.13
26436;BME280;15351;52.408;16.826;2023-07-29T05:16:55;100155.13;;;20.79;82.34
26436;BME280;15351;52.408;16.826;2023-07-29T05:19:27;100157.09;;;20.83;82.47
26436;BME280;15351;52.408;16.826;2023-07-29T05:21:53;100151.69;;;20.88;82.72
26436;BME280;15351;52.408;16.826;2023-07-29T05:24:23;100143.48;;;20.94;82.87
26436;BME280;15351;52.408;16.826;2023-07-29T05:26:50;100145.39;;;20.99;83.02
26436;BME280;15351;52.408;16.826;2023-07-29T05:29:17;100147.62;;;21.03;83.26
26436;BME280;15351;52.408;16.826;2023-07-29T05:31:48;100151.80;;;21.07;83.32
26436;BME280;15351;52.408;16.826;2023-07-29T05:34:20;100154.15;;;21.10;83.38
26436;BME280;15351;52.408;16.826;2023-07-29T05:36:50;100157.83;;;21.15;83.41
26436;BME280;15351;52.408;16.826;2023-07-29T05:39:16;100164.77;;;21.19;83.47
26436;BME280;15351;52.408;16.826;2023-07-29T05:41:43;100161.73;;;21.22;83.54
26436;BME280;15351;52.408;16.826;2023-07-29T05:44:09;100158.98;;;21.26;83.72
26436;BME280;15351;52.408;16.826;2023-07-29T05:46:35;100158.46;;;21.31;83.88
26436;BME280;15351;52.408;16.826;2023-07-29T05:49:02;100159.42;;;21.37;83.91
26436;BME280;15351;52.408;16.826;2023-07-29T05:51:28;100164.59;;;21.38;83.78
26436;BME280;15351;52.408;16.826;2023-07-29T05:54:17;100163.65;;;21.37;83.77
26436;BME280;15351;52.408;16.826;2023-07-29T05:58:01;100167.58;;;21.43;83.67
26436;BME280;15351;52.408;16.826;2023-07-29T06:01:12;100166.58;;;21.47;83.80
26436;BME280;15351;52.408;16.826;2023-07-29T06:07:16;100169.19;;;21.53;83.82
26436;BME280;15351;52.408;16.826;2023-07-29T06:09:57;100167.32;;;21.57;84.08
26436;BME280;15351;52.408;16.826;2023-07-29T06:12:29;100166.19;;;21.60;84.18
26436;BME280;15351;52.408;16.826;2023-07-29T06:15:20;100165.24;;;21.64;84.14
26436;BME280;15351;52.408;16.826;2023-07-29T06:21:58;100165.06;;;21.71;83.98
26436;BME280;15351;52.408;16.826;2023-07-29T06:24:29;100161.85;;;21.76;84.23
26436;BME280;15351;52.408;16.826;2023-07-29T06:27:46;100167.73;;;21.83;84.03
26436;BME280;15351;52.408;16.826;2023-07-29T06:30:58;100166.52;;;21.90;84.05
26436;BME280;15351;52.408;16.826;2023-07-29T06:33:52;100164.16;;;22.01;84.07
26436;BME280;15351;52.408;16.826;2023-07-29T06:37:31;100163.67;;;22.12;84.24
26436;BME280;15351;52.408;16.826;2023-07-29T06:40:51;100159.13;;;22.23;84.27
26436;BME280;15351;52.408;16.826;2023-07-29T06:44:01;100161.90;;;22.29;83.75
26436;BME280;15351;52.408;16.826;2023-07-29T06:46:37;100160.59;;;22.34;83.59
26436;BME280;15351;52.408;16.826;2023-07-29T06:49:35;100161.63;;;22.41;83.49
26436;BME280;15351;52.408;16.826;2023-07-29T06:52:39;100155.99;;;22.44;83.17
26436;BME280;15351;52.408;16.826;2023-07-29T06:55:33;100160.50;;;22.49;82.92
26436;BME280;15351;52.408;16.826;2023-07-29T07:01:37;100157.04;;;22.57;82.50
26436;BME280;15351;52.408;16.826;2023-07-29T07:04:19;100142.77;;;22.61;82.50
26436;BME280;15351;52.408;16.826;2023-07-29T07:07:38;100141.94;;;22.73;82.43
26436;BME280;15351;52.408;16.826;2023-07-29T07:10:13;100136.89;;;22.81;82.44
26436;BME280;15351;52.408;16.826;2023-07-29T07:12:53;100137.23;;;22.91;82.42
26436;BME280;15351;52.408;16.826;2023-07-29T07:15:29;100133.30;;;23.00;82.09
26436;BME280;15351;52.408;16.826;2023-07-29T07:18:50;100132.17;;;23.17;81.98
26436;BME280;15351;52.408;16.826;2023-07-29T07:21:36;100131.37;;;23.32;81.64
26436;BME280;15351;52.408;16.826;2023-07-29T07:24:26;100128.98;;;23.46;81.43
26436;BME280;15351;52.408;16.826;2023-07-29T07:30:24;100125.14;;;23.71;80.30
26436;BME280;15351;52.408;16.826;2023-07-29T07:33:12;100122.52;;;23.86;80.07
26436;BME280;15351;52.408;16.826;2023-07-29T07:37:02;100125.40;;;24.06;79.92
26436;BME280;15351;52.408;16.826;2023-07-29T07:40:12;100126.66;;;24.26;79.50
26436;BME280;15351;52.408;16.826;2023-07-29T07:42:47;100124.35;;;24.42;78.77
26436;BME280;15351;52.408;16.826;2023-07-29T07:49:18;100131.30;;;24.81;78.17
26436;BME280;15351;52.408;16.826;2023-07-29T07:52:08;100126.15;;;24.97;77.04
26436;BME280;15351;52.408;16.826;2023-07-29T07:54:42;100129.59;;;25.04;75.31
26436;BME280;15351;52.408;16.826;2023-07-29T07:58:18;100125.73;;;25.17;74.82
26436;BME280;15351;52.408;16.826;2023-07-29T08:01:00;100122.30;;;25.29;74.27
26436;BME280;15351;52.408;16.826;2023-07-29T08:04:05;100114.05;;;25.37;73.42
26436;BME280;15351;52.408;16.826;2023-07-29T08:06:42;100110.05;;;25.48;73.38
26436;BME280;15351;52.408;16.826;2023-07-29T08:09:48;100106.77;;;25.64;71.74
26436;BME280;15351;52.408;16.826;2023-07-29T08:12:54;100103.02;;;25.69;69.61
26436;BME280;15351;52.408;16.826;2023-07-29T08:16:10;100100.10;;;25.76;69.32
26436;BME280;15351;52.408;16.826;2023-07-29T08:19:30;100095.64;;;25.93;69.20
26436;BME280;15351;52.408;16.826;2023-07-29T08:22:02;100100.75;;;26.08;68.75
26436;BME280;15351;52.408;16.826;2023-07-29T08:24:34;100100.30;;;26.15;68.38
26436;BME280;15351;52.408;16.826;2023-07-29T08:31:20;100094.67;;;26.33;67.66
26436;BME280;15351;52.408;16.826;2023-07-29T08:34:07;100092.09;;;26.49;67.67
26436;BME280;15351;52.408;16.826;2023-07-29T08:36:34;100092.83;;;26.60;66.73
26436;BME280;15351;52.408;16.826;2023-07-29T08:39:04;100092.27;;;26.72;66.78
26436;BME280;15351;52.408;16.826;2023-07-29T08:41:57;100083.11;;;26.87;67.02
26436;BME280;15351;52.408;16.826;2023-07-29T08:44:43;100083.12;;;27.00;66.57
26436;BME280;15351;52.408;16.826;2023-07-29T08:47:18;100080.23;;;27.10;65.25
26436;BME280;15351;52.408;16.826;2023-07-29T08:49:44;100084.14;;;27.13;64.88
26436;BME280;15351;52.408;16.826;2023-07-29T08:52:14;100084.33;;;27.21;64.04
26436;BME280;15351;52.408;16.826;2023-07-29T08:54:43;100081.59;;;27.24;62.69
26436;BME280;15351;52.408;16.826;2023-07-29T08:57:13;100076.21;;;27.14;62.04
26436;BME280;15351;52.408;16.826;2023-07-29T08:59:53;100079.41;;;27.15;62.31
26436;BME280;15351;52.408;16.826;2023-07-29T09:02:23;100079.48;;;27.23;62.43
26436;BME280;15351;52.408;16.826;2023-07-29T09:04:49;100077.08;;;27.37;63.09
26436;BME280;15351;52.408;16.826;2023-07-29T09:07:17;100074.43;;;27.47;61.92
26436;BME280;15351;52.408;16.826;2023-07-29T09:09:49;100074.48;;;27.57;61.49
26436;BME280;15351;52.408;16.826;2023-07-29T09:12:22;100073.44;;;27.67;61.14
26436;BME280;15351;52.408;16.826;2023-07-29T09:14:52;100068.97;;;27.76;61.13
26436;BME280;15351;52.408;16.826;2023-07-29T09:17:30;100075.67;;;27.73;60.67
26436;BME280;15351;52.408;16.826;2023-07-29T09:20:13;100074.50;;;27.62;59.96
26436;BME280;15351;52.408;16.826;2023-07-29T09:22:43;100067.04;;;27.48;59.50
26436;BME280;15351;52.408;16.826;2023-07-29T09:25:13;100066.20;;;27.37;59.35
26436;BME280;15351;52.408;16.826;2023-07-29T09:27:45;100060.14;;;27.39;60.26
26436;BME280;15351;52.408;16.826;2023-07-29T09:30:17;100061.94;;;27.54;60.82
26436;BME280;15351;52.408;16.826;2023-07-29T09:33:05;100064.01;;;27.58;59.59
26436;BME280;15351;52.408;16.826;2023-07-29T09:35:34;100065.17;;;27.52;58.36
26436;BME280;15351;52.408;16.826;2023-07-29T09:38:04;100062.79;;;27.47;58.05
26436;BME280;15351;52.408;16.826;2023-07-29T09:40:37;100062.41;;;27.46;58.16
26436;BME280;15351;52.408;16.826;2023-07-29T09:43:14;100068.52;;;27.45;58.26
26436;BME280;15351;52.408;16.826;2023-07-29T09:45:42;100063.92;;;27.55;58.51
26436;BME280;15351;52.408;16.826;2023-07-29T09:48:14;100065.94;;;27.68;58.68
26436;BME280;15351;52.408;16.826;2023-07-29T09:50:44;100060.39;;;27.80;58.69
26436;BME280;15351;52.408;16.826;2023-07-29T09:53:13;100063.27;;;27.95;58.41
26436;BME280;15351;52.408;16.826;2023-07-29T09:55:47;100057.44;;;27.95;57.41
26436;BME280;15351;52.408;16.826;2023-07-29T09:58:25;100057.22;;;27.99;57.23
26436;BME280;15351;52.408;16.826;2023-07-29T10:00:59;100055.53;;;28.06;56.82
26436;BME280;15351;52.408;16.826;2023-07-29T10:03:27;100052.92;;;28.06;56.41
26436;BME280;15351;52.408;16.826;2023-07-29T10:05:54;100045.05;;;28.14;56.40
26436;BME280;15351;52.408;16.826;2023-07-29T10:19:44;100027.35;;;28.45;55.17
26436;BME280;15351;52.408;16.826;2023-07-29T10:22:27;100021.12;;;28.46;54.51
26436;BME280;15351;52.408;16.826;2023-07-29T10:25:03;100017.16;;;28.52;54.21
26436;BME280;15351;52.408;16.826;2023-07-29T10:27:38;100009.23;;;28.61;54.85
26436;BME280;15351;52.408;16.826;2023-07-29T10:30:13;100009.08;;;28.68;54.57
26436;BME280;15351;52.408;16.826;2023-07-29T10:32:43;100005.52;;;28.74;54.48
26436;BME280;15351;52.408;16.826;2023-07-29T10:35:20;100003.59;;;28.81;54.30
26436;BME280;15351;52.408;16.826;2023-07-29T10:45:39;99998.79;;;28.89;53.85
26436;BME280;15351;52.408;16.826;2023-07-29T10:57:15;99984.35;;;28.81;53.29
26436;BME280;15351;52.408;16.826;2023-07-29T11:00:19;99975.74;;;28.77;53.19
26436;BME280;15351;52.408;16.826;2023-07-29T11:03:02;99977.70;;;28.70;53.24
26436;BME280;15351;52.408;16.826;2023-07-29T11:11:43;99969.89;;;28.38;52.97
26436;BME280;15351;52.408;16.826;2023-07-29T11:14:10;99958.30;;;28.31;52.90
26436;BME280;15351;52.408;16.826;2023-07-29T11:16:50;99962.77;;;28.31;53.17
26436;BME280;15351;52.408;16.826;2023-07-29T11:19:19;99963.60;;;28.39;53.61
26436;BME280;15351;52.408;16.826;2023-07-29T11:21:58;99957.07;;;28.40;53.54
26436;BME280;15351;52.408;16.826;2023-07-29T11:24:52;99950.58;;;28.43;53.75
26436;BME280;15351;52.408;16.826;2023-07-29T11:27:18;99943.69;;;28.55;54.23
26436;BME280;15351;52.408;16.826;2023-07-29T11:33:26;99934.57;;;28.68;54.15
26436;BME280;15351;52.408;16.826;2023-07-29T11:35:54;99934.04;;;28.63;53.81
26436;BME280;15351;52.408;16.826;2023-07-29T11:38:27;99937.00;;;28.56;53.25
26436;BME280;15351;52.408;16.826;2023-07-29T11:41:19;99928.93;;;28.46;53.11
26436;BME280;15351;52.408;16.826;2023-07-29T11:43:48;99923.85;;;28.41;52.69
26436;BME280;15351;52.408;16.826;2023-07-29T11:46:28;99917.41;;;28.48;53.37
26436;BME280;15351;52.408;16.826;2023-07-29T11:49:02;99907.80;;;28.60;53.74
26436;BME280;15351;52.408;16.826;2023-07-29T11:51:33;99901.64;;;28.70;53.57
26436;BME280;15351;52.408;16.826;2023-07-29T11:54:10;99898.13;;;28.70;53.36
26436;BME280;15351;52.408;16.826;2023-07-29T11:57:13;99892.91;;;28.72;53.44
26436;BME280;15351;52.408;16.826;2023-07-29T11:59:43;99895.53;;;28.67;52.47
26436;BME280;15351;52.408;16.826;2023-07-29T12:02:14;99896.55;;;28.62;52.46
26436;BME280;15351;52.408;16.826;2023-07-29T12:04:57;99893.21;;;28.65;53.14
26436;BME280;15351;52.408;16.826;2023-07-29T12:07:24;99891.35;;;28.70;53.20
26436;BME280;15351;52.408;16.826;2023-07-29T12:09:59;99891.73;;;28.68;52.87
26436;BME280;15351;52.408;16.826;2023-07-29T12:12:50;99890.95;;;28.61;52.67
26436;BME280;15351;52.408;16.826;2023-07-29T12:15:27;99891.42;;;28.54;52.40
26436;BME280;15351;52.408;16.826;2023-07-29T12:17:57;99885.32;;;28.44;52.40
26436;BME280;15351;52.408;16.826;2023-07-29T12:20:23;99882.57;;;28.42;52.95
26436;BME280;15351;52.408;16.826;2023-07-29T12:22:52;99874.80;;;28.44;53.38
26436;BME280;15351;52.408;16.826;2023-07-29T12:25:18;99865.52;;;28.42;53.03
26436;BME280;15351;52.408;16.826;2023-07-29T12:27:47;99858.85;;;28.39;53.27
26436;BME280;15351;52.408;16.826;2023-07-29T12:30:14;99852.77;;;28.38;53.83
26436;BME280;15351;52.408;16.826;2023-07-29T12:32:45;99843.10;;;28.38;54.07
26436;BME280;15351;52.408;16.826;2023-07-29T12:35:12;99836.46;;;28.37;53.75
26436;BME280;15351;52.408;16.826;2023-07-29T12:37:39;99832.23;;;28.37;53.93
26436;BME280;15351;52.408;16.826;2023-07-29T12:40:20;99830.70;;;28.42;53.84
26436;BME280;15351;52.408;16.826;2023-07-29T12:42:47;99822.08;;;28.40;53.33
26436;BME280;15351;52.408;16.826;2023-07-29T12:45:17;99818.02;;;28.35;53.09
26436;BME280;15351;52.408;16.826;2023-07-29T12:47:44;99819.88;;;28.27;52.70
26436;BME280;15351;52.408;16.826;2023-07-29T12:50:12;99817.80;;;28.19;52.75
26436;BME280;15351;52.408;16.826;2023-07-29T12:52:38;99815.48;;;28.12;52.86
26436;BME280;15351;52.408;16.826;2023-07-29T12:55:05;99809.23;;;28.04;52.92
26436;BME280;15351;52.408;16.826;2023-07-29T12:57:31;99814.36;;;27.99;53.36
26436;BME280;15351;52.408;16.826;2023-07-29T12:59:58;99813.95;;;27.97;53.71
26436;BME280;15351;52.408;16.826;2023-07-29T13:02:25;99812.20;;;27.95;53.83
26436;BME280;15351;52.408;16.826;2023-07-29T13:04:52;99815.52;;;27.93;53.80
26436;BME280;15351;52.408;16.826;2023-07-29T13:07:18;99822.73;;;27.90;53.89
26436;BME280;15351;52.408;16.826;2023-07-29T13:09:44;99819.53;;;27.86;53.74
26436;BME280;15351;52.408;16.826;2023-07-29T13:12:10;99815.48;;;27.86;53.46
26436;BME280;15351;52.408;16.826;2023-07-29T13:14:36;99813.11;;;27.85;53.26
26436;BME280;15351;52.408;16.826;2023-07-29T13:17:03;99812.27;;;27.85;53.34
26436;BME280;15351;52.408;16.826;2023-07-29T13:19:29;99803.95;;;27.85;53.46
26436;BME280;15351;52.408;16.826;2023-07-29T13:21:55;99794.30;;;27.83;53.77
26436;BME280;15351;52.408;16.826;2023-07-29T13:24:21;99791.79;;;27.81;53.82
26436;BME280;15351;52.408;16.826;2023-07-29T13:26:48;99791.54;;;27.76;54.78
26436;BME280;15351;52.408;16.826;2023-07-29T13:29:14;99796.92;;;27.70;56.02
26436;BME280;15351;52.408;16.826;2023-07-29T13:31:40;99803.14;;;27.64;57.91
26436;BME280;15351;52.408;16.826;2023-07-29T13:34:07;99802.86;;;27.52;60.33
26436;BME280;15351;52.408;16.826;2023-07-29T13:36:33;99795.39;;;27.44;61.96
26436;BME280;15351;52.408;16.826;2023-07-29T13:39:00;99786.94;;;27.38;63.23
26436;BME280;15351;52.408;16.826;2023-07-29T13:41:28;99784.73;;;27.33;64.10
26436;BME280;15351;52.408;16.826;2023-07-29T13:43:57;99783.08;;;27.28;64.68
26436;BME280;15351;52.408;16.826;2023-07-29T13:46:24;99788.05;;;27.26;65.85
26436;BME280;15351;52.408;16.826;2023-07-29T13:48:53;99802.52;;;27.20;66.46
26436;BME280;15351;52.408;16.826;2023-07-29T13:51:34;99819.29;;;27.03;65.13
26436;BME280;15351;52.408;16.826;2023-07-29T13:54:01;99828.61;;;26.84;63.60
26436;BME280;15351;52.408;16.826;2023-07-29T13:56:27;99859.84;;;26.63;62.64
26436;BME280;15351;52.408;16.826;2023-07-29T13:58:54;99895.48;;;26.40;63.02
26436;BME280;15351;52.408;16.826;2023-07-29T14:01:20;99931.61;;;25.97;62.31
26436;BME280;15351;52.408;16.826;2023-07-29T14:03:50;99885.01;;;25.39;61.04
26436;BME280;15351;52.408;16.826;2023-07-29T14:06:16;99871.36;;;25.09;60.64
26436;BME280;15351;52.408;16.826;2023-07-29T14:08:42;99840.95;;;24.84;61.66
26436;BME280;15351;52.408;16.826;2023-07-29T14:11:09;99834.52;;;24.65;62.52
26436;BME280;15351;52.408;16.826;2023-07-29T14:13:35;99820.63;;;24.58;64.04
26436;BME280;15351;52.408;16.826;2023-07-29T14:16:02;99808.09;;;24.57;64.92
26436;BME280;15351;52.408;16.826;2023-07-29T14:18:33;99795.29;;;24.58;66.13